Ana Sayfa
METAR-TAF:

METAR-TAF

Havaalanları :

Coffeyville, Kansas, Amerika Birleşik Devletleri

Enlem: 37-05-28N, Boylam: 095-33-59W, yükseklik: 229 m

Güncel hava durumu gözlemi

Rapor saat 05:52 UTC de 38 dakika önce yapıldı.
Rüzgar güney/güneydoğudan 6 kt
Sıcaklık 24°C
Nem 69%
Basınç 1016 hPa
Görüş mesafesi: 16.1 km
Açık gökyüzü

METAR: KCFV 190552Z AUTO 16006KT 10SM CLR 24/18 A2999 RMK AO2 SLP145 T02440183 10311 20244 403220239 51018

Saat: 01:30 (06:30 UTC)


TAF: eksik

4.000'den fazla havaalanı için hava durumu gözlemleri ve tahminleri (METAR ve TAF raporları).

Kullanılabilir istasyonlar harita üzerinde sarı ve kırmızı noktalarla gösterilir.

İstasyonun adını görmek için fareyi noktanın üzerinde gezdirin.

Sonrasında hava gözlem ve tahminlerini görmek için tıklayın.

Haritayı değiştirmek için: yaklaştırmak için siyah artı işaretli yeşil düğmeye ve uzaklaştırmak için de eksi işaretli düğmeye hızla tıklayın; bitişik haritalar için yeşil okları kullanın.


METAR-TAF: